sensor_id;sensor_type;location;lat;lon;timestamp;P1;durP1;ratioP1;P2;durP2;ratioP2
64157;SDS011;50449;51.528;5.076;2023-09-30T00:00:44;97.82;;;93.45;;
64157;SDS011;50449;51.528;5.076;2023-09-30T00:03:10;99.97;;;95.40;;
64157;SDS011;50449;51.528;5.076;2023-09-30T00:05:36;102.45;;;97.75;;
64157;SDS011;50449;51.528;5.076;2023-09-30T00:08:02;97.80;;;93.18;;
64157;SDS011;50449;51.528;5.076;2023-09-30T00:10:29;101.93;;;96.95;;
64157;SDS011;50449;51.528;5.076;2023-09-30T00:12:55;102.35;;;97.70;;
64157;SDS011;50449;51.528;5.076;2023-09-30T00:15:21;99.53;;;94.28;;
64157;SDS011;50449;51.528;5.076;2023-09-30T00:17:47;98.97;;;94.32;;
64157;SDS011;50449;51.528;5.076;2023-09-30T00:20:12;98.10;;;93.65;;
64157;SDS011;50449;51.528;5.076;2023-09-30T00:22:39;100.22;;;95.63;;
64157;SDS011;50449;51.528;5.076;2023-09-30T00:25:05;99.93;;;95.03;;
64157;SDS011;50449;51.528;5.076;2023-09-30T00:27:31;99.53;;;94.78;;
64157;SDS011;50449;51.528;5.076;2023-09-30T00:29:57;99.05;;;94.55;;
64157;SDS011;50449;51.528;5.076;2023-09-30T00:32:22;101.30;;;96.50;;
64157;SDS011;50449;51.528;5.076;2023-09-30T00:34:48;98.22;;;93.72;;
64157;SDS011;50449;51.528;5.076;2023-09-30T00:37:14;98.30;;;93.65;;
64157;SDS011;50449;51.528;5.076;2023-09-30T00:39:39;97.57;;;92.68;;
64157;SDS011;50449;51.528;5.076;2023-09-30T00:42:04;97.35;;;92.95;;
64157;SDS011;50449;51.528;5.076;2023-09-30T00:44:30;102.55;;;97.85;;
64157;SDS011;50449;51.528;5.076;2023-09-30T00:46:56;99.28;;;94.50;;
64157;SDS011;50449;51.528;5.076;2023-09-30T00:49:23;95.32;;;90.93;;
64157;SDS011;50449;51.528;5.076;2023-09-30T00:51:49;95.63;;;91.28;;
64157;SDS011;50449;51.528;5.076;2023-09-30T00:54:16;97.10;;;92.32;;
64157;SDS011;50449;51.528;5.076;2023-09-30T00:56:44;97.45;;;92.90;;
64157;SDS011;50449;51.528;5.076;2023-09-30T00:59:11;95.82;;;91.45;;
64157;SDS011;50449;51.528;5.076;2023-09-30T01:01:40;96.63;;;91.95;;
64157;SDS011;50449;51.528;5.076;2023-09-30T01:04:13;96.35;;;91.80;;
64157;SDS011;50449;51.528;5.076;2023-09-30T01:06:39;99.78;;;94.93;;
64157;SDS011;50449;51.528;5.076;2023-09-30T01:09:05;96.43;;;91.82;;
64157;SDS011;50449;51.528;5.076;2023-09-30T01:11:32;95.03;;;90.45;;
64157;SDS011;50449;51.528;5.076;2023-09-30T01:13:58;96.93;;;92.28;;
64157;SDS011;50449;51.528;5.076;2023-09-30T01:16:23;98.97;;;94.20;;
64157;SDS011;50449;51.528;5.076;2023-09-30T01:18:49;99.13;;;94.43;;
64157;SDS011;50449;51.528;5.076;2023-09-30T01:21:15;95.03;;;90.70;;
64157;SDS011;50449;51.528;5.076;2023-09-30T01:23:40;99.00;;;94.10;;
64157;SDS011;50449;51.528;5.076;2023-09-30T01:26:10;99.43;;;94.63;;
64157;SDS011;50449;51.528;5.076;2023-09-30T01:28:37;96.20;;;91.75;;
64157;SDS011;50449;51.528;5.076;2023-09-30T01:31:03;99.63;;;94.93;;
64157;SDS011;50449;51.528;5.076;2023-09-30T01:33:29;95.47;;;90.55;;
64157;SDS011;50449;51.528;5.076;2023-09-30T01:35:55;95.82;;;91.25;;
64157;SDS011;50449;51.528;5.076;2023-09-30T01:38:20;95.47;;;90.78;;
64157;SDS011;50449;51.528;5.076;2023-09-30T01:40:46;96.13;;;91.63;;
64157;SDS011;50449;51.528;5.076;2023-09-30T01:43:12;95.68;;;91.07;;
64157;SDS011;50449;51.528;5.076;2023-09-30T01:45:39;93.15;;;88.65;;
64157;SDS011;50449;51.528;5.076;2023-09-30T01:48:05;97.97;;;93.32;;
64157;SDS011;50449;51.528;5.076;2023-09-30T01:50:31;92.90;;;88.60;;
64157;SDS011;50449;51.528;5.076;2023-09-30T01:52:56;97.53;;;92.78;;
64157;SDS011;50449;51.528;5.076;2023-09-30T01:55:22;91.50;;;87.25;;
64157;SDS011;50449;51.528;5.076;2023-09-30T01:57:47;93.57;;;89.20;;
64157;SDS011;50449;51.528;5.076;2023-09-30T02:00:13;93.10;;;88.80;;
64157;SDS011;50449;51.528;5.076;2023-09-30T02:02:38;92.18;;;87.78;;
64157;SDS011;50449;51.528;5.076;2023-09-30T02:05:04;93.00;;;88.55;;
64157;SDS011;50449;51.528;5.076;2023-09-30T02:07:33;93.65;;;89.20;;
64157;SDS011;50449;51.528;5.076;2023-09-30T02:09:59;92.50;;;88.07;;
64157;SDS011;50449;51.528;5.076;2023-09-30T02:12:26;95.55;;;90.85;;
64157;SDS011;50449;51.528;5.076;2023-09-30T02:14:53;94.28;;;89.78;;
64157;SDS011;50449;51.528;5.076;2023-09-30T02:17:18;91.95;;;87.30;;
64157;SDS011;50449;51.528;5.076;2023-09-30T02:19:43;93.68;;;88.88;;
64157;SDS011;50449;51.528;5.076;2023-09-30T02:22:09;90.65;;;86.53;;
64157;SDS011;50449;51.528;5.076;2023-09-30T02:24:34;90.43;;;86.18;;
64157;SDS011;50449;51.528;5.076;2023-09-30T02:27:00;93.30;;;88.90;;
64157;SDS011;50449;51.528;5.076;2023-09-30T02:29:25;93.18;;;88.88;;
64157;SDS011;50449;51.528;5.076;2023-09-30T02:31:51;94.88;;;90.22;;
64157;SDS011;50449;51.528;5.076;2023-09-30T02:34:16;90.45;;;86.15;;
64157;SDS011;50449;51.528;5.076;2023-09-30T02:36:42;94.35;;;89.95;;
64157;SDS011;50449;51.528;5.076;2023-09-30T02:39:07;92.60;;;88.20;;
64157;SDS011;50449;51.528;5.076;2023-09-30T02:41:35;94.72;;;90.20;;
64157;SDS011;50449;51.528;5.076;2023-09-30T02:44:02;93.78;;;89.07;;
64157;SDS011;50449;51.528;5.076;2023-09-30T02:46:28;93.32;;;88.85;;
64157;SDS011;50449;51.528;5.076;2023-09-30T02:48:53;94.43;;;89.45;;
64157;SDS011;50449;51.528;5.076;2023-09-30T02:51:19;89.55;;;84.97;;
64157;SDS011;50449;51.528;5.076;2023-09-30T02:53:44;88.43;;;84.13;;
64157;SDS011;50449;51.528;5.076;2023-09-30T02:56:11;90.90;;;86.20;;
64157;SDS011;50449;51.528;5.076;2023-09-30T02:58:36;87.65;;;83.25;;
64157;SDS011;50449;51.528;5.076;2023-09-30T03:01:03;89.38;;;84.88;;
64157;SDS011;50449;51.528;5.076;2023-09-30T03:03:28;86.85;;;82.47;;
64157;SDS011;50449;51.528;5.076;2023-09-30T03:05:56;86.65;;;82.18;;
64157;SDS011;50449;51.528;5.076;2023-09-30T03:08:22;87.18;;;83.07;;
64157;SDS011;50449;51.528;5.076;2023-09-30T03:10:49;86.63;;;82.28;;
64157;SDS011;50449;51.528;5.076;2023-09-30T03:13:14;87.88;;;83.47;;
64157;SDS011;50449;51.528;5.076;2023-09-30T03:15:39;87.80;;;83.65;;
64157;SDS011;50449;51.528;5.076;2023-09-30T03:18:05;89.50;;;85.10;;
64157;SDS011;50449;51.528;5.076;2023-09-30T03:20:30;88.97;;;84.78;;
64157;SDS011;50449;51.528;5.076;2023-09-30T03:22:56;90.25;;;85.88;;
64157;SDS011;50449;51.528;5.076;2023-09-30T03:25:21;87.05;;;82.85;;
64157;SDS011;50449;51.528;5.076;2023-09-30T03:27:47;85.18;;;81.13;;
64157;SDS011;50449;51.528;5.076;2023-09-30T03:30:14;90.43;;;85.72;;
64157;SDS011;50449;51.528;5.076;2023-09-30T03:32:40;85.55;;;81.55;;
64157;SDS011;50449;51.528;5.076;2023-09-30T03:35:07;87.07;;;82.85;;
64157;SDS011;50449;51.528;5.076;2023-09-30T03:37:44;88.80;;;84.30;;
64157;SDS011;50449;51.528;5.076;2023-09-30T03:40:10;83.75;;;79.45;;
64157;SDS011;50449;51.528;5.076;2023-09-30T03:42:58;82.80;;;78.95;;
64157;SDS011;50449;51.528;5.076;2023-09-30T03:45:24;86.03;;;81.72;;
64157;SDS011;50449;51.528;5.076;2023-09-30T03:47:49;84.35;;;80.40;;
64157;SDS011;50449;51.528;5.076;2023-09-30T03:50:16;83.82;;;79.97;;
64157;SDS011;50449;51.528;5.076;2023-09-30T03:52:43;86.43;;;82.28;;
64157;SDS011;50449;51.528;5.076;2023-09-30T03:55:12;88.90;;;84.32;;
64157;SDS011;50449;51.528;5.076;2023-09-30T03:57:39;84.95;;;80.93;;
64157;SDS011;50449;51.528;5.076;2023-09-30T04:00:05;88.05;;;83.47;;
64157;SDS011;50449;51.528;5.076;2023-09-30T04:02:31;86.32;;;82.03;;
64157;SDS011;50449;51.528;5.076;2023-09-30T04:04:57;84.35;;;80.13;;
64157;SDS011;50449;51.528;5.076;2023-09-30T04:07:24;87.40;;;83.03;;
64157;SDS011;50449;51.528;5.076;2023-09-30T04:09:52;86.70;;;82.55;;
64157;SDS011;50449;51.528;5.076;2023-09-30T04:12:21;84.10;;;80.00;;
64157;SDS011;50449;51.528;5.076;2023-09-30T04:14:48;86.00;;;81.97;;
64157;SDS011;50449;51.528;5.076;2023-09-30T04:17:14;84.03;;;79.72;;
64157;SDS011;50449;51.528;5.076;2023-09-30T04:19:39;80.53;;;76.85;;
64157;SDS011;50449;51.528;5.076;2023-09-30T04:22:05;83.45;;;79.32;;
64157;SDS011;50449;51.528;5.076;2023-09-30T04:24:30;86.28;;;81.85;;
64157;SDS011;50449;51.528;5.076;2023-09-30T04:26:56;82.20;;;78.13;;
64157;SDS011;50449;51.528;5.076;2023-09-30T04:29:27;81.43;;;77.32;;
64157;SDS011;50449;51.528;5.076;2023-09-30T04:31:52;81.82;;;77.53;;
64157;SDS011;50449;51.528;5.076;2023-09-30T04:34:19;83.82;;;79.72;;
64157;SDS011;50449;51.528;5.076;2023-09-30T04:36:44;82.18;;;78.18;;
64157;SDS011;50449;51.528;5.076;2023-09-30T04:39:10;84.78;;;80.47;;
64157;SDS011;50449;51.528;5.076;2023-09-30T04:41:37;82.30;;;78.13;;
64157;SDS011;50449;51.528;5.076;2023-09-30T04:44:06;82.97;;;78.85;;
64157;SDS011;50449;51.528;5.076;2023-09-30T04:46:32;85.57;;;81.30;;
64157;SDS011;50449;51.528;5.076;2023-09-30T04:48:57;81.15;;;77.28;;
64157;SDS011;50449;51.528;5.076;2023-09-30T04:51:22;84.50;;;79.93;;
64157;SDS011;50449;51.528;5.076;2023-09-30T04:53:50;79.30;;;75.50;;
64157;SDS011;50449;51.528;5.076;2023-09-30T04:56:16;83.55;;;79.43;;
64157;SDS011;50449;51.528;5.076;2023-09-30T04:58:41;79.38;;;75.63;;
64157;SDS011;50449;51.528;5.076;2023-09-30T05:01:07;84.45;;;79.93;;
64157;SDS011;50449;51.528;5.076;2023-09-30T05:03:33;79.75;;;75.63;;
64157;SDS011;50449;51.528;5.076;2023-09-30T05:05:59;83.18;;;79.28;;
64157;SDS011;50449;51.528;5.076;2023-09-30T05:08:25;85.22;;;80.05;;
64157;SDS011;50449;51.528;5.076;2023-09-30T05:10:51;81.55;;;77.25;;
64157;SDS011;50449;51.528;5.076;2023-09-30T05:13:20;81.20;;;77.20;;
64157;SDS011;50449;51.528;5.076;2023-09-30T05:15:45;81.57;;;77.65;;
64157;SDS011;50449;51.528;5.076;2023-09-30T05:18:11;81.63;;;77.70;;
64157;SDS011;50449;51.528;5.076;2023-09-30T05:20:37;85.00;;;79.55;;
64157;SDS011;50449;51.528;5.076;2023-09-30T05:23:03;83.97;;;80.00;;
64157;SDS011;50449;51.528;5.076;2023-09-30T05:25:31;79.68;;;75.65;;
64157;SDS011;50449;51.528;5.076;2023-09-30T05:27:56;80.07;;;76.28;;
64157;SDS011;50449;51.528;5.076;2023-09-30T05:30:22;84.78;;;80.40;;
64157;SDS011;50449;51.528;5.076;2023-09-30T05:32:47;83.65;;;79.05;;
64157;SDS011;50449;51.528;5.076;2023-09-30T05:35:12;81.88;;;78.00;;
64157;SDS011;50449;51.528;5.076;2023-09-30T05:37:41;81.05;;;76.97;;
64157;SDS011;50449;51.528;5.076;2023-09-30T05:40:08;79.57;;;75.60;;
64157;SDS011;50449;51.528;5.076;2023-09-30T05:42:45;81.28;;;77.25;;
64157;SDS011;50449;51.528;5.076;2023-09-30T05:45:11;82.82;;;78.72;;
64157;SDS011;50449;51.528;5.076;2023-09-30T05:47:39;80.35;;;76.25;;
64157;SDS011;50449;51.528;5.076;2023-09-30T05:50:06;83.25;;;78.85;;
64157;SDS011;50449;51.528;5.076;2023-09-30T05:52:32;83.30;;;78.68;;
64157;SDS011;50449;51.528;5.076;2023-09-30T05:54:57;82.97;;;78.78;;
64157;SDS011;50449;51.528;5.076;2023-09-30T05:57:23;81.78;;;77.78;;
64157;SDS011;50449;51.528;5.076;2023-09-30T05:59:48;81.53;;;77.22;;
64157;SDS011;50449;51.528;5.076;2023-09-30T06:02:14;80.18;;;76.25;;
64157;SDS011;50449;51.528;5.076;2023-09-30T06:04:40;81.35;;;77.40;;
64157;SDS011;50449;51.528;5.076;2023-09-30T06:07:05;82.32;;;78.13;;
64157;SDS011;50449;51.528;5.076;2023-09-30T06:09:31;79.95;;;75.13;;
64157;SDS011;50449;51.528;5.076;2023-09-30T06:11:56;82.50;;;78.60;;
64157;SDS011;50449;51.528;5.076;2023-09-30T06:14:22;81.80;;;77.38;;
64157;SDS011;50449;51.528;5.076;2023-09-30T06:16:47;80.82;;;76.72;;
64157;SDS011;50449;51.528;5.076;2023-09-30T06:19:12;80.55;;;76.70;;
64157;SDS011;50449;51.528;5.076;2023-09-30T06:21:38;81.45;;;77.30;;
64157;SDS011;50449;51.528;5.076;2023-09-30T06:24:04;79.65;;;75.85;;
64157;SDS011;50449;51.528;5.076;2023-09-30T06:26:30;80.43;;;76.43;;
64157;SDS011;50449;51.528;5.076;2023-09-30T06:28:56;81.88;;;77.47;;
64157;SDS011;50449;51.528;5.076;2023-09-30T06:31:22;81.57;;;77.60;;
64157;SDS011;50449;51.528;5.076;2023-09-30T06:33:48;81.88;;;77.78;;
64157;SDS011;50449;51.528;5.076;2023-09-30T06:36:13;79.43;;;75.63;;
64157;SDS011;50449;51.528;5.076;2023-09-30T06:38:39;78.50;;;74.47;;
64157;SDS011;50449;51.528;5.076;2023-09-30T06:41:07;77.03;;;73.32;;
64157;SDS011;50449;51.528;5.076;2023-09-30T06:43:33;78.47;;;74.47;;
64157;SDS011;50449;51.528;5.076;2023-09-30T06:46:04;79.57;;;75.50;;
64157;SDS011;50449;51.528;5.076;2023-09-30T06:48:32;83.07;;;78.80;;
64157;SDS011;50449;51.528;5.076;2023-09-30T06:50:58;79.68;;;75.50;;
64157;SDS011;50449;51.528;5.076;2023-09-30T06:53:24;82.80;;;78.63;;
64157;SDS011;50449;51.528;5.076;2023-09-30T06:55:49;81.20;;;76.90;;
64157;SDS011;50449;51.528;5.076;2023-09-30T06:58:16;80.47;;;76.53;;
64157;SDS011;50449;51.528;5.076;2023-09-30T07:00:46;78.50;;;74.55;;
64157;SDS011;50449;51.528;5.076;2023-09-30T07:03:18;82.20;;;77.70;;
64157;SDS011;50449;51.528;5.076;2023-09-30T07:08:15;80.63;;;76.23;;
64157;SDS011;50449;51.528;5.076;2023-09-30T07:10:43;77.18;;;73.40;;
64157;SDS011;50449;51.528;5.076;2023-09-30T07:13:11;79.63;;;75.43;;
64157;SDS011;50449;51.528;5.076;2023-09-30T07:15:36;79.72;;;75.68;;
64157;SDS011;50449;51.528;5.076;2023-09-30T07:18:02;75.03;;;71.18;;
64157;SDS011;50449;51.528;5.076;2023-09-30T07:20:28;79.18;;;75.28;;
64157;SDS011;50449;51.528;5.076;2023-09-30T07:22:57;78.65;;;74.28;;
64157;SDS011;50449;51.528;5.076;2023-09-30T07:25:23;78.32;;;74.53;;
64157;SDS011;50449;51.528;5.076;2023-09-30T07:27:49;80.38;;;75.97;;
64157;SDS011;50449;51.528;5.076;2023-09-30T07:30:15;82.97;;;78.38;;
64157;SDS011;50449;51.528;5.076;2023-09-30T07:32:41;80.72;;;76.22;;
64157;SDS011;50449;51.528;5.076;2023-09-30T07:35:07;83.80;;;79.18;;
64157;SDS011;50449;51.528;5.076;2023-09-30T07:37:33;83.93;;;79.70;;
64157;SDS011;50449;51.528;5.076;2023-09-30T07:39:59;83.38;;;78.82;;
64157;SDS011;50449;51.528;5.076;2023-09-30T07:42:24;79.60;;;75.22;;
64157;SDS011;50449;51.528;5.076;2023-09-30T07:44:50;82.07;;;77.35;;
64157;SDS011;50449;51.528;5.076;2023-09-30T07:47:15;82.82;;;78.82;;
64157;SDS011;50449;51.528;5.076;2023-09-30T07:49:41;83.20;;;78.95;;
64157;SDS011;50449;51.528;5.076;2023-09-30T07:52:06;78.75;;;74.60;;
64157;SDS011;50449;51.528;5.076;2023-09-30T07:54:32;84.65;;;79.85;;
64157;SDS011;50449;51.528;5.076;2023-09-30T07:56:57;80.65;;;75.65;;
64157;SDS011;50449;51.528;5.076;2023-09-30T07:59:24;85.18;;;80.13;;
64157;SDS011;50449;51.528;5.076;2023-09-30T08:01:49;83.07;;;78.00;;
64157;SDS011;50449;51.528;5.076;2023-09-30T08:04:14;85.65;;;80.95;;
64157;SDS011;50449;51.528;5.076;2023-09-30T08:06:40;83.75;;;79.32;;
64157;SDS011;50449;51.528;5.076;2023-09-30T08:09:05;79.82;;;75.60;;
64157;SDS011;50449;51.528;5.076;2023-09-30T08:11:36;82.90;;;77.53;;
64157;SDS011;50449;51.528;5.076;2023-09-30T08:14:02;80.70;;;76.38;;
64157;SDS011;50449;51.528;5.076;2023-09-30T08:16:32;79.53;;;75.43;;
64157;SDS011;50449;51.528;5.076;2023-09-30T08:18:58;85.93;;;80.80;;
64157;SDS011;50449;51.528;5.076;2023-09-30T08:21:23;84.38;;;79.35;;
64157;SDS011;50449;51.528;5.076;2023-09-30T08:23:49;82.07;;;77.22;;
64157;SDS011;50449;51.528;5.076;2023-09-30T08:26:14;81.53;;;76.80;;
64157;SDS011;50449;51.528;5.076;2023-09-30T08:28:39;83.30;;;78.85;;
64157;SDS011;50449;51.528;5.076;2023-09-30T08:31:05;85.90;;;80.10;;
64157;SDS011;50449;51.528;5.076;2023-09-30T08:33:33;81.93;;;77.10;;
64157;SDS011;50449;51.528;5.076;2023-09-30T08:36:01;84.97;;;79.60;;
64157;SDS011;50449;51.528;5.076;2023-09-30T08:38:33;80.55;;;75.68;;
64157;SDS011;50449;51.528;5.076;2023-09-30T08:41:02;88.80;;;83.03;;
64157;SDS011;50449;51.528;5.076;2023-09-30T08:43:28;86.15;;;80.68;;
64157;SDS011;50449;51.528;5.076;2023-09-30T08:45:55;86.63;;;80.93;;
64157;SDS011;50449;51.528;5.076;2023-09-30T08:48:21;82.55;;;77.15;;
64157;SDS011;50449;51.528;5.076;2023-09-30T08:50:48;85.18;;;80.03;;
64157;SDS011;50449;51.528;5.076;2023-09-30T08:53:17;82.57;;;77.60;;
64157;SDS011;50449;51.528;5.076;2023-09-30T08:55:44;87.93;;;82.55;;
64157;SDS011;50449;51.528;5.076;2023-09-30T08:58:11;88.50;;;82.28;;
64157;SDS011;50449;51.528;5.076;2023-09-30T09:00:38;87.00;;;81.07;;
64157;SDS011;50449;51.528;5.076;2023-09-30T09:03:04;86.40;;;80.88;;
64157;SDS011;50449;51.528;5.076;2023-09-30T09:05:31;87.97;;;81.82;;
64157;SDS011;50449;51.528;5.076;2023-09-30T09:07:56;92.30;;;85.40;;
64157;SDS011;50449;51.528;5.076;2023-09-30T09:10:22;86.30;;;80.72;;
64157;SDS011;50449;51.528;5.076;2023-09-30T09:12:54;88.95;;;82.90;;
64157;SDS011;50449;51.528;5.076;2023-09-30T09:15:23;87.38;;;81.97;;
64157;SDS011;50449;51.528;5.076;2023-09-30T09:17:50;86.43;;;80.95;;
64157;SDS011;50449;51.528;5.076;2023-09-30T09:20:18;83.35;;;78.28;;
64157;SDS011;50449;51.528;5.076;2023-09-30T09:22:50;86.05;;;80.63;;
64157;SDS011;50449;51.528;5.076;2023-09-30T09:25:18;88.15;;;81.57;;
64157;SDS011;50449;51.528;5.076;2023-09-30T09:27:44;85.60;;;80.35;;
64157;SDS011;50449;51.528;5.076;2023-09-30T09:30:17;89.45;;;83.20;;
64157;SDS011;50449;51.528;5.076;2023-09-30T09:35:38;87.70;;;81.57;;
64157;SDS011;50449;51.528;5.076;2023-09-30T09:38:04;86.28;;;81.18;;
64157;SDS011;50449;51.528;5.076;2023-09-30T09:40:34;89.47;;;82.93;;
64157;SDS011;50449;51.528;5.076;2023-09-30T09:43:02;90.07;;;83.72;;
64157;SDS011;50449;51.528;5.076;2023-09-30T09:45:35;95.20;;;87.45;;
64157;SDS011;50449;51.528;5.076;2023-09-30T09:48:02;91.32;;;84.20;;
64157;SDS011;50449;51.528;5.076;2023-09-30T09:50:29;84.60;;;79.30;;
64157;SDS011;50449;51.528;5.076;2023-09-30T09:52:57;92.50;;;85.70;;
64157;SDS011;50449;51.528;5.076;2023-09-30T09:55:25;95.57;;;88.72;;
64157;SDS011;50449;51.528;5.076;2023-09-30T09:57:52;94.50;;;87.65;;
64157;SDS011;50449;51.528;5.076;2023-09-30T10:00:19;88.20;;;82.55;;
64157;SDS011;50449;51.528;5.076;2023-09-30T10:02:46;94.03;;;87.50;;
64157;SDS011;50449;51.528;5.076;2023-09-30T10:05:12;91.65;;;85.18;;
64157;SDS011;50449;51.528;5.076;2023-09-30T10:07:52;87.43;;;82.18;;
64157;SDS011;50449;51.528;5.076;2023-09-30T10:10:22;93.53;;;86.70;;
64157;SDS011;50449;51.528;5.076;2023-09-30T10:12:48;93.78;;;86.65;;
64157;SDS011;50449;51.528;5.076;2023-09-30T10:20:30;93.15;;;86.60;;
64157;SDS011;50449;51.528;5.076;2023-09-30T10:31:15;91.25;;;85.50;;
64157;SDS011;50449;51.528;5.076;2023-09-30T10:36:45;90.60;;;84.40;;
64157;SDS011;50449;51.528;5.076;2023-09-30T10:39:12;94.65;;;88.90;;
64157;SDS011;50449;51.528;5.076;2023-09-30T10:44:46;91.78;;;86.60;;
64157;SDS011;50449;51.528;5.076;2023-09-30T10:49:42;89.78;;;85.43;;
64157;SDS011;50449;51.528;5.076;2023-09-30T10:52:08;93.60;;;88.40;;
64157;SDS011;50449;51.528;5.076;2023-09-30T10:54:34;94.95;;;89.53;;
64157;SDS011;50449;51.528;5.076;2023-09-30T10:57:00;96.60;;;88.57;;
64157;SDS011;50449;51.528;5.076;2023-09-30T10:59:27;94.82;;;88.38;;
64157;SDS011;50449;51.528;5.076;2023-09-30T11:01:57;89.43;;;84.50;;
64157;SDS011;50449;51.528;5.076;2023-09-30T11:04:23;92.25;;;87.57;;
64157;SDS011;50449;51.528;5.076;2023-09-30T11:06:48;92.20;;;87.10;;
64157;SDS011;50449;51.528;5.076;2023-09-30T11:09:16;92.97;;;87.78;;
64157;SDS011;50449;51.528;5.076;2023-09-30T11:11:43;96.50;;;90.18;;
64157;SDS011;50449;51.528;5.076;2023-09-30T11:14:16;93.78;;;88.57;;
64157;SDS011;50449;51.528;5.076;2023-09-30T11:16:45;97.50;;;91.15;;
64157;SDS011;50449;51.528;5.076;2023-09-30T11:19:11;97.80;;;92.07;;
64157;SDS011;50449;51.528;5.076;2023-09-30T11:21:38;94.88;;;89.15;;
64157;SDS011;50449;51.528;5.076;2023-09-30T11:24:04;94.32;;;89.03;;
64157;SDS011;50449;51.528;5.076;2023-09-30T11:26:32;93.30;;;88.93;;
64157;SDS011;50449;51.528;5.076;2023-09-30T11:29:11;95.45;;;89.93;;
64157;SDS011;50449;51.528;5.076;2023-09-30T11:31:42;93.20;;;88.07;;
64157;SDS011;50449;51.528;5.076;2023-09-30T11:34:12;96.10;;;91.38;;
64157;SDS011;50449;51.528;5.076;2023-09-30T11:36:38;92.63;;;87.65;;
64157;SDS011;50449;51.528;5.076;2023-09-30T11:39:07;94.43;;;89.85;;
64157;SDS011;50449;51.528;5.076;2023-09-30T11:41:37;95.68;;;90.72;;
64157;SDS011;50449;51.528;5.076;2023-09-30T11:44:08;92.55;;;88.13;;
64157;SDS011;50449;51.528;5.076;2023-09-30T11:46:48;94.63;;;89.95;;
64157;SDS011;50449;51.528;5.076;2023-09-30T11:49:23;96.25;;;90.90;;
64157;SDS011;50449;51.528;5.076;2023-09-30T11:51:50;95.30;;;90.25;;
64157;SDS011;50449;51.528;5.076;2023-09-30T11:54:16;96.18;;;91.32;;
64157;SDS011;50449;51.528;5.076;2023-09-30T11:56:41;94.45;;;89.55;;
64157;SDS011;50449;51.528;5.076;2023-09-30T11:59:07;96.07;;;91.32;;
64157;SDS011;50449;51.528;5.076;2023-09-30T12:01:35;96.35;;;91.60;;
64157;SDS011;50449;51.528;5.076;2023-09-30T12:04:04;93.38;;;88.40;;
64157;SDS011;50449;51.528;5.076;2023-09-30T12:06:29;94.22;;;89.18;;
64157;SDS011;50449;51.528;5.076;2023-09-30T12:08:55;96.43;;;91.25;;
64157;SDS011;50449;51.528;5.076;2023-09-30T12:11:20;94.53;;;89.65;;
64157;SDS011;50449;51.528;5.076;2023-09-30T12:13:48;96.85;;;91.78;;
64157;SDS011;50449;51.528;5.076;2023-09-30T12:16:15;97.68;;;92.88;;
64157;SDS011;50449;51.528;5.076;2023-09-30T12:18:41;95.82;;;90.63;;
64157;SDS011;50449;51.528;5.076;2023-09-30T12:21:12;98.72;;;93.60;;
64157;SDS011;50449;51.528;5.076;2023-09-30T12:23:45;93.10;;;88.43;;
64157;SDS011;50449;51.528;5.076;2023-09-30T12:26:11;96.65;;;91.82;;
64157;SDS011;50449;51.528;5.076;2023-09-30T12:28:37;97.35;;;92.38;;
64157;SDS011;50449;51.528;5.076;2023-09-30T12:31:05;98.68;;;93.38;;
64157;SDS011;50449;51.528;5.076;2023-09-30T12:33:31;95.20;;;90.28;;
64157;SDS011;50449;51.528;5.076;2023-09-30T12:35:57;98.22;;;93.35;;
64157;SDS011;50449;51.528;5.076;2023-09-30T12:38:26;98.28;;;93.57;;
64157;SDS011;50449;51.528;5.076;2023-09-30T12:40:53;98.07;;;93.38;;
64157;SDS011;50449;51.528;5.076;2023-09-30T12:43:19;99.20;;;94.15;;
64157;SDS011;50449;51.528;5.076;2023-09-30T12:45:46;99.68;;;95.07;;
64157;SDS011;50449;51.528;5.076;2023-09-30T12:48:12;97.90;;;92.95;;
64157;SDS011;50449;51.528;5.076;2023-09-30T12:50:38;102.07;;;97.00;;
64157;SDS011;50449;51.528;5.076;2023-09-30T12:53:03;98.57;;;93.72;;
64157;SDS011;50449;51.528;5.076;2023-09-30T12:55:29;101.15;;;95.95;;
64157;SDS011;50449;51.528;5.076;2023-09-30T12:57:54;99.53;;;94.78;;
64157;SDS011;50449;51.528;5.076;2023-09-30T13:00:19;99.97;;;95.25;;
64157;SDS011;50449;51.528;5.076;2023-09-30T13:02:47;98.30;;;93.75;;
64157;SDS011;50449;51.528;5.076;2023-09-30T13:05:13;102.25;;;97.25;;
64157;SDS011;50449;51.528;5.076;2023-09-30T13:07:39;100.70;;;95.35;;
64157;SDS011;50449;51.528;5.076;2023-09-30T13:10:05;100.95;;;96.15;;
64157;SDS011;50449;51.528;5.076;2023-09-30T13:12:32;99.23;;;94.47;;
64157;SDS011;50449;51.528;5.076;2023-09-30T13:14:58;100.85;;;96.35;;
64157;SDS011;50449;51.528;5.076;2023-09-30T13:17:24;102.25;;;97.35;;
64157;SDS011;50449;51.528;5.076;2023-09-30T13:19:50;102.53;;;97.63;;
64157;SDS011;50449;51.528;5.076;2023-09-30T13:22:16;102.18;;;97.18;;
64157;SDS011;50449;51.528;5.076;2023-09-30T13:24:44;104.30;;;98.68;;
64157;SDS011;50449;51.528;5.076;2023-09-30T13:27:10;105.47;;;100.10;;
64157;SDS011;50449;51.528;5.076;2023-09-30T13:29:36;103.72;;;98.65;;
64157;SDS011;50449;51.528;5.076;2023-09-30T13:32:01;103.18;;;98.18;;
64157;SDS011;50449;51.528;5.076;2023-09-30T13:34:27;105.65;;;100.65;;
64157;SDS011;50449;51.528;5.076;2023-09-30T13:36:54;102.20;;;97.28;;
64157;SDS011;50449;51.528;5.076;2023-09-30T13:39:20;103.47;;;98.65;;
64157;SDS011;50449;51.528;5.076;2023-09-30T13:41:46;104.53;;;99.15;;
64157;SDS011;50449;51.528;5.076;2023-09-30T13:44:12;101.43;;;96.55;;
64157;SDS011;50449;51.528;5.076;2023-09-30T13:46:38;106.65;;;101.65;;
64157;SDS011;50449;51.528;5.076;2023-09-30T13:49:03;106.57;;;101.50;;
64157;SDS011;50449;51.528;5.076;2023-09-30T13:51:29;107.32;;;102.05;;
64157;SDS011;50449;51.528;5.076;2023-09-30T13:53:54;104.70;;;99.60;;
64157;SDS011;50449;51.528;5.076;2023-09-30T13:56:20;107.50;;;102.53;;
64157;SDS011;50449;51.528;5.076;2023-09-30T13:58:46;104.35;;;98.70;;
64157;SDS011;50449;51.528;5.076;2023-09-30T14:01:14;106.75;;;101.25;;
64157;SDS011;50449;51.528;5.076;2023-09-30T14:03:40;105.43;;;100.35;;
64157;SDS011;50449;51.528;5.076;2023-09-30T14:06:12;108.55;;;103.35;;
64157;SDS011;50449;51.528;5.076;2023-09-30T14:08:38;106.80;;;101.97;;
64157;SDS011;50449;51.528;5.076;2023-09-30T14:11:04;106.13;;;101.05;;
64157;SDS011;50449;51.528;5.076;2023-09-30T14:13:30;108.57;;;103.78;;
64157;SDS011;50449;51.528;5.076;2023-09-30T14:15:56;110.70;;;105.53;;
64157;SDS011;50449;51.528;5.076;2023-09-30T14:18:21;107.72;;;102.68;;
64157;SDS011;50449;51.528;5.076;2023-09-30T14:20:47;105.60;;;100.63;;
64157;SDS011;50449;51.528;5.076;2023-09-30T14:23:13;107.00;;;101.80;;
64157;SDS011;50449;51.528;5.076;2023-09-30T14:25:38;111.97;;;106.22;;
64157;SDS011;50449;51.528;5.076;2023-09-30T14:28:04;112.43;;;106.82;;
64157;SDS011;50449;51.528;5.076;2023-09-30T14:30:30;108.72;;;103.40;;
64157;SDS011;50449;51.528;5.076;2023-09-30T14:32:55;107.35;;;102.30;;
64157;SDS011;50449;51.528;5.076;2023-09-30T14:35:21;106.20;;;101.55;;
64157;SDS011;50449;51.528;5.076;2023-09-30T14:37:46;107.00;;;101.97;;
64157;SDS011;50449;51.528;5.076;2023-09-30T14:40:11;109.82;;;104.63;;
64157;SDS011;50449;51.528;5.076;2023-09-30T14:42:38;107.63;;;101.95;;